createdAt,value
2019-03-21T00:01:05.645Z,8.60
2019-03-21T00:02:10.923Z,8.30
2019-03-21T00:03:17.467Z,7.90
2019-03-21T00:04:24.659Z,8.58
2019-03-21T00:05:31.743Z,9.80
2019-03-21T00:06:35.946Z,8.05
2019-03-21T00:07:45.406Z,8.48
2019-03-21T00:08:52.302Z,8.80
2019-03-21T00:10:18.839Z,9.95
2019-03-21T00:11:42.779Z,8.33
2019-03-21T00:12:50.010Z,9.25
2019-03-21T00:13:54.154Z,7.87
2019-03-21T00:15:01.757Z,8.98
2019-03-21T00:16:08.765Z,9.88
2019-03-21T00:17:33.762Z,9.05
2019-03-21T00:18:39.245Z,8.60
2019-03-21T00:19:45.027Z,9.10
2019-03-21T00:20:50.785Z,9.25
2019-03-21T00:21:55.293Z,9.00
2019-03-21T00:23:01.965Z,8.83
2019-03-21T00:24:06.979Z,9.28
2019-03-21T00:25:21.844Z,9.08
2019-03-21T00:26:24.134Z,9.05
2019-03-21T00:27:32.965Z,8.70
2019-03-21T00:28:49.389Z,8.50
2019-03-21T00:29:52.388Z,9.50
2019-03-21T00:30:53.345Z,8.23
2019-03-21T00:31:57.556Z,8.25
2019-03-21T00:33:06.674Z,8.43
2019-03-21T00:34:18.371Z,8.38
2019-03-21T00:35:33.176Z,7.83
2019-03-21T00:36:57.692Z,8.80
2019-03-21T00:38:03.438Z,7.78
2019-03-21T00:39:09.623Z,7.58
2019-03-21T00:40:25.574Z,7.55
2019-03-21T00:41:30.146Z,8.08
2019-03-21T00:42:34.695Z,8.70
2019-03-21T00:43:55.069Z,8.18
2019-03-21T00:46:24.119Z,7.62
2019-03-21T00:47:31.365Z,8.05
2019-03-21T00:48:43.025Z,8.38
2019-03-21T00:51:08.397Z,9.10
2019-03-21T00:52:14.171Z,7.90
2019-03-21T00:53:25.847Z,7.83
2019-03-21T00:56:04.037Z,8.48
2019-03-21T00:57:17.825Z,8.68
2019-03-21T00:57:50.547Z,8.23
2019-03-21T00:59:04.097Z,8.65
2019-03-21T00:59:34.317Z,8.63
2019-03-21T01:01:32.704Z,7.65
2019-03-21T01:02:17.003Z,8.83
2019-03-21T01:03:25.546Z,8.33
2019-03-21T01:05:47.887Z,9.23
2019-03-21T01:05:58.611Z,8.65
2019-03-21T01:07:11.849Z,8.58
2019-03-21T01:09:25.778Z,7.92
2019-03-21T01:09:46.959Z,9.25
2019-03-21T01:10:53.608Z,8.75
2019-03-21T01:12:16.603Z,8.90
2019-03-21T01:13:26.144Z,8.10
2019-03-21T01:14:42.611Z,8.25
2019-03-21T01:15:47.937Z,9.10
2019-03-21T01:16:54.388Z,8.60
2019-03-21T01:17:58.739Z,8.18
2019-03-21T01:19:09.019Z,9.33
2019-03-21T01:20:16.069Z,8.43
2019-03-21T01:21:21.861Z,8.53
2019-03-21T01:22:27.811Z,8.60
2019-03-21T01:23:34.979Z,8.50
2019-03-21T01:24:43.131Z,8.20
2019-03-21T01:25:55.051Z,9.30
2019-03-21T01:27:00.909Z,8.55
2019-03-21T01:28:09.293Z,9.08
2019-03-21T01:29:18.927Z,9.23
2019-03-21T01:30:23.159Z,9.05
2019-03-21T01:31:32.096Z,8.73
2019-03-21T01:32:39.025Z,8.45
2019-03-21T01:33:44.879Z,9.08
2019-03-21T01:35:08.360Z,9.03
2019-03-21T01:36:27.163Z,8.33
2019-03-21T01:37:21.883Z,8.60
2019-03-21T01:38:37.009Z,8.80
2019-03-21T01:39:40.326Z,9.15
2019-03-21T01:40:52.545Z,9.40
2019-03-21T01:42:02.882Z,9.38
2019-03-21T01:43:08.341Z,9.50
2019-03-21T01:44:16.877Z,9.73
2019-03-21T01:45:27.942Z,8.75
2019-03-21T01:46:33.893Z,10.23
2019-03-21T01:47:46.100Z,9.73
2019-03-21T01:48:47.599Z,9.03
2019-03-21T01:50:04.126Z,10.00
2019-03-21T01:51:12.453Z,8.90
2019-03-21T01:52:19.021Z,9.35
2019-03-21T01:54:03.807Z,9.93
2019-03-21T01:54:42.923Z,9.00
2019-03-21T01:55:45.363Z,9.45
2019-03-21T01:56:49.673Z,8.85
2019-03-21T01:57:55.523Z,9.40
2019-03-21T01:59:01.060Z,9.63
2019-03-21T02:00:17.341Z,8.88
2019-03-21T02:01:25.125Z,10.00
2019-03-21T02:02:33.319Z,9.98
2019-03-21T02:03:38.823Z,9.50
2019-03-21T02:04:52.251Z,9.95
2019-03-21T02:05:59.329Z,8.90
2019-03-21T02:07:11.219Z,10.63
2019-03-21T02:08:21.775Z,9.45
2019-03-21T02:09:27.332Z,10.00
2019-03-21T02:10:31.819Z,11.12
2019-03-21T02:11:38.923Z,9.75
2019-03-21T02:12:53.126Z,10.55
2019-03-21T02:14:00.629Z,9.13
2019-03-21T02:15:08.701Z,9.23
2019-03-21T02:16:14.548Z,10.10
2019-03-21T02:17:20.228Z,9.35
2019-03-21T02:18:26.763Z,9.43
2019-03-21T02:19:33.708Z,9.53
2019-03-21T02:20:45.707Z,11.65
2019-03-21T02:21:52.699Z,9.90
2019-03-21T02:22:59.649Z,9.60
2019-03-21T02:24:06.854Z,10.45
2019-03-21T02:25:16.225Z,10.68
2019-03-21T02:26:22.607Z,11.12
2019-03-21T02:29:10.763Z,10.85
2019-03-21T02:30:01.665Z,10.93
2019-03-21T02:31:07.232Z,10.53
2019-03-21T02:32:11.669Z,10.58
2019-03-21T02:33:29.307Z,11.25
2019-03-21T02:34:30.548Z,10.63
2019-03-21T02:35:37.016Z,11.20
2019-03-21T02:37:25.090Z,10.45
2019-03-21T02:42:02.061Z,11.57
2019-03-21T02:42:45.279Z,10.82
2019-03-21T02:43:46.078Z,10.43
2019-03-21T02:45:07.197Z,11.48
2019-03-21T02:46:01.259Z,10.72
2019-03-21T02:47:10.253Z,11.28
2019-03-21T02:48:17.204Z,10.55
2019-03-21T02:49:24.197Z,11.20
2019-03-21T02:50:48.686Z,11.40
2019-03-21T02:51:54.541Z,11.40
2019-03-21T02:53:01.569Z,10.95
2019-03-21T02:54:07.359Z,12.03
2019-03-21T02:55:13.975Z,11.80
2019-03-21T02:56:21.355Z,10.70
2019-03-21T02:57:29.861Z,11.08
2019-03-21T02:58:37.534Z,11.60
2019-03-21T02:59:43.706Z,12.10
2019-03-21T03:00:51.121Z,11.73
2019-03-21T03:01:55.700Z,12.25
2019-03-21T03:03:00.836Z,10.72
2019-03-21T03:04:06.681Z,10.35
2019-03-21T03:05:15.788Z,11.78
2019-03-21T03:06:20.548Z,11.85
2019-03-21T03:07:26.449Z,12.73
2019-03-21T03:08:35.895Z,11.33
2019-03-21T03:09:39.308Z,12.03
2019-03-21T03:10:52.052Z,12.68
2019-03-21T03:12:01.889Z,11.73
2019-03-21T03:13:07.545Z,12.90
2019-03-21T03:14:16.001Z,12.15
2019-03-21T03:15:25.171Z,11.78
2019-03-21T03:16:30.093Z,11.90
2019-03-21T03:17:35.808Z,11.60
2019-03-21T03:18:40.083Z,11.43
2019-03-21T03:19:45.546Z,11.45
2019-03-21T03:20:49.823Z,12.73
2019-03-21T03:21:54.136Z,12.70
2019-03-21T03:22:58.379Z,11.35
2019-03-21T03:24:04.260Z,12.00
2019-03-21T03:25:13.916Z,10.93
2019-03-21T03:26:19.523Z,12.37
2019-03-21T03:27:23.764Z,12.63
2019-03-21T03:28:38.621Z,11.68
2019-03-21T03:29:42.855Z,12.58
2019-03-21T03:30:49.348Z,12.93
2019-03-21T03:31:53.735Z,12.55
2019-03-21T03:33:01.191Z,11.65
2019-03-21T03:34:05.379Z,13.48
2019-03-21T03:35:11.967Z,12.25
2019-03-21T03:36:16.854Z,12.60
2019-03-21T03:37:21.032Z,11.55
2019-03-21T03:38:26.968Z,13.78
2019-03-21T03:39:31.306Z,12.55
2019-03-21T03:40:42.415Z,12.20
2019-03-21T03:42:51.674Z,12.68
2019-03-21T03:43:55.886Z,12.30
2019-03-21T03:45:00.396Z,13.65
2019-03-21T03:46:04.949Z,12.10
2019-03-21T03:47:09.215Z,11.68
2019-03-21T03:48:14.490Z,12.50
2019-03-21T03:49:20.827Z,13.03
2019-03-21T03:50:26.680Z,12.53
2019-03-21T03:51:30.816Z,13.75
2019-03-21T03:52:39.490Z,12.85
2019-03-21T03:53:43.809Z,13.90
2019-03-21T03:54:48.012Z,13.75
2019-03-21T03:55:55.274Z,14.20
2019-03-21T03:57:01.146Z,12.70
2019-03-21T03:58:53.360Z,12.90
2019-03-21T03:59:54.003Z,12.18
2019-03-21T04:01:06.475Z,12.93
2019-03-21T04:02:20.861Z,13.22
2019-03-21T04:03:29.586Z,14.38
2019-03-21T04:04:35.557Z,13.98
2019-03-21T04:05:42.762Z,13.88
2019-03-21T04:06:47.027Z,13.60
2019-03-21T04:07:54.931Z,13.58
2019-03-21T04:09:01.443Z,14.03
2019-03-21T04:10:08.636Z,13.45
2019-03-21T04:11:14.546Z,13.78
2019-03-21T04:12:20.099Z,12.60
2019-03-21T04:13:24.319Z,14.33
2019-03-21T04:14:32.349Z,13.90
2019-03-21T04:15:51.633Z,13.53
2019-03-21T04:16:46.142Z,12.95
2019-03-21T04:17:55.212Z,12.45
2019-03-21T04:19:02.574Z,14.28
2019-03-21T04:20:12.345Z,13.53
2019-03-21T04:21:18.858Z,13.83
2019-03-21T04:22:26.114Z,12.90
2019-03-21T04:23:30.386Z,14.68
2019-03-21T04:24:34.702Z,13.70
2019-03-21T04:25:46.129Z,13.50
2019-03-21T04:26:53.714Z,13.40
2019-03-21T04:27:57.635Z,14.15
2019-03-21T04:29:04.277Z,13.28
2019-03-21T04:30:10.679Z,14.03
2019-03-21T04:31:17.237Z,13.85
2019-03-21T04:32:24.260Z,14.07
2019-03-21T04:33:32.441Z,14.18
2019-03-21T04:34:39.156Z,12.75
2019-03-21T04:35:44.174Z,13.65
2019-03-21T04:36:50.047Z,13.65
2019-03-21T04:37:56.653Z,14.35
2019-03-21T04:39:03.167Z,14.30
2019-03-21T04:40:11.594Z,13.80
2019-03-21T04:41:19.176Z,13.28
2019-03-21T04:42:25.071Z,14.50
2019-03-21T04:43:29.417Z,14.43
2019-03-21T04:44:44.384Z,13.85
2019-03-21T04:45:45.680Z,14.10
2019-03-21T04:46:59.682Z,14.68
2019-03-21T04:48:11.796Z,12.68
2019-03-21T04:49:19.092Z,14.78
2019-03-21T04:50:43.402Z,13.30
2019-03-21T04:51:49.107Z,12.80
2019-03-21T04:52:54.571Z,13.80
2019-03-21T04:54:00.536Z,13.10
2019-03-21T04:55:07.867Z,14.23
2019-03-21T04:56:14.783Z,14.43
2019-03-21T04:57:20.777Z,13.68
2019-03-21T04:58:27.418Z,14.15
2019-03-21T04:59:34.521Z,13.85
2019-03-21T05:00:47.391Z,14.15
2019-03-21T05:01:54.504Z,13.85
2019-03-21T05:03:07.994Z,14.47
2019-03-21T05:04:17.534Z,13.45
2019-03-21T05:06:29.180Z,14.38
2019-03-21T05:07:35.199Z,14.70
2019-03-21T05:08:40.798Z,13.60
2019-03-21T05:09:45.074Z,13.60
2019-03-21T05:10:49.584Z,14.10
2019-03-21T05:11:57.738Z,14.53
2019-03-21T05:13:02.828Z,15.05
2019-03-21T05:14:09.375Z,14.00
2019-03-21T05:15:22.206Z,13.68
2019-03-21T05:16:29.024Z,15.00
2019-03-21T05:17:34.771Z,14.35
2019-03-21T05:18:55.716Z,15.55
2019-03-21T05:20:03.369Z,13.88
2019-03-21T05:21:16.404Z,13.78
2019-03-21T05:22:23.216Z,15.15
2019-03-21T05:23:30.192Z,15.00
2019-03-21T05:24:34.546Z,14.80
2019-03-21T05:27:06.052Z,15.13
2019-03-21T05:28:11.914Z,13.78
2019-03-21T05:29:19.090Z,15.85
2019-03-21T05:30:51.612Z,14.38
2019-03-21T05:31:59.235Z,14.30
2019-03-21T05:33:06.416Z,13.75
2019-03-21T05:34:12.230Z,14.87
2019-03-21T05:35:18.072Z,14.63
2019-03-21T05:36:22.500Z,13.68
2019-03-21T05:37:29.311Z,13.95
2019-03-21T05:38:34.006Z,14.50
2019-03-21T05:39:39.130Z,13.62
2019-03-21T05:40:46.376Z,14.58
2019-03-21T05:41:53.680Z,16.35
2019-03-21T05:43:17.070Z,14.45
2019-03-21T05:44:30.797Z,14.00
2019-03-21T05:45:43.621Z,13.18
2019-03-21T05:46:48.123Z,16.07
2019-03-21T05:47:53.182Z,16.02
2019-03-21T05:49:01.377Z,15.23
2019-03-21T05:50:11.555Z,14.28
2019-03-21T05:51:18.011Z,14.95
2019-03-21T05:52:22.227Z,15.65
2019-03-21T05:53:29.390Z,14.93
2019-03-21T05:54:33.648Z,15.53
2019-03-21T05:55:39.548Z,14.25
2019-03-21T05:56:43.745Z,14.85
2019-03-21T05:57:55.485Z,14.65
2019-03-21T05:59:03.590Z,15.53
2019-03-21T06:00:16.296Z,14.90
2019-03-21T06:01:31.404Z,16.15
2019-03-21T06:02:26.571Z,15.53
2019-03-21T06:03:49.675Z,15.75
2019-03-21T06:04:56.544Z,15.05
2019-03-21T06:06:23.229Z,15.75
2019-03-21T06:07:32.824Z,14.25
2019-03-21T06:08:53.958Z,15.85
2019-03-21T06:09:47.962Z,15.75
2019-03-21T06:10:56.894Z,14.43
2019-03-21T06:12:04.368Z,14.60
2019-03-21T06:13:11.537Z,15.68
2019-03-21T06:14:16.008Z,16.52
2019-03-21T06:15:25.108Z,14.68
2019-03-21T06:16:37.623Z,14.03
2019-03-21T06:17:40.770Z,14.95
2019-03-21T06:19:02.015Z,16.45
2019-03-21T06:20:24.845Z,16.37
2019-03-21T06:21:54.912Z,15.65
2019-03-21T06:23:02.223Z,14.28
2019-03-21T06:24:21.339Z,15.93
2019-03-21T06:25:45.085Z,15.20
2019-03-21T06:27:14.433Z,16.07
2019-03-21T06:28:15.843Z,15.30
2019-03-21T06:29:21.791Z,15.80
2019-03-21T06:30:30.598Z,14.43
2019-03-21T06:31:46.095Z,15.35
2019-03-21T06:33:03.365Z,14.28
2019-03-21T06:33:58.377Z,17.40
2019-03-21T06:35:07.294Z,15.38
2019-03-21T06:36:15.749Z,14.80
2019-03-21T06:37:22.512Z,14.50
2019-03-21T06:38:37.487Z,14.85
2019-03-21T06:39:42.368Z,17.42
2019-03-21T06:40:52.201Z,15.25
2019-03-21T06:41:57.162Z,15.65
2019-03-21T06:43:06.067Z,15.30
2019-03-21T06:44:14.573Z,15.65
2019-03-21T06:45:30.963Z,15.83
2019-03-21T06:46:27.665Z,15.05
2019-03-21T06:47:33.707Z,16.05
2019-03-21T06:48:52.091Z,15.48
2019-03-21T06:50:18.886Z,15.95
2019-03-21T06:51:19.504Z,14.95
2019-03-21T06:52:29.379Z,15.32
2019-03-21T06:54:42.769Z,16.00
2019-03-21T06:55:56.703Z,16.27
2019-03-21T06:57:06.532Z,15.40
2019-03-21T06:58:15.921Z,15.88
2019-03-21T06:59:23.138Z,16.95
2019-03-21T07:00:35.758Z,14.83
2019-03-21T07:01:45.711Z,14.50
2019-03-21T07:04:21.533Z,15.72
2019-03-21T07:05:35.406Z,16.00
2019-03-21T07:08:04.773Z,14.68
2019-03-21T07:09:16.033Z,15.25
2019-03-21T07:11:36.004Z,16.07
2019-03-21T07:12:04.183Z,17.10
2019-03-21T07:12:50.957Z,15.43
2019-03-21T07:13:59.631Z,17.05
2019-03-21T07:15:43.454Z,16.45
2019-03-21T07:16:29.177Z,16.25
2019-03-21T07:17:57.209Z,15.13
2019-03-21T07:19:15.014Z,15.80
2019-03-21T07:20:43.918Z,15.95
2019-03-21T07:23:03.762Z,15.72
2019-03-21T07:24:10.712Z,16.10
2019-03-21T07:25:17.303Z,14.18
2019-03-21T07:26:28.365Z,15.50
2019-03-21T07:27:32.256Z,15.45
2019-03-21T07:28:40.664Z,14.93
2019-03-21T07:30:04.050Z,15.65
2019-03-21T07:31:14.988Z,15.32
2019-03-21T07:32:33.070Z,15.15
2019-03-21T07:33:41.403Z,15.43
2019-03-21T07:34:44.915Z,15.85
2019-03-21T07:35:51.055Z,15.00
2019-03-21T07:36:59.347Z,14.50
2019-03-21T07:38:10.692Z,15.75
2019-03-21T07:39:16.089Z,15.65
2019-03-21T07:40:23.973Z,16.27
2019-03-21T07:41:32.796Z,15.50
2019-03-21T07:42:48.859Z,14.28
2019-03-21T07:43:56.115Z,14.63
2019-03-21T07:45:01.968Z,15.55
2019-03-21T07:46:14.114Z,14.65
2019-03-21T07:47:16.481Z,15.20
2019-03-21T07:48:24.698Z,15.93
2019-03-21T07:51:00.282Z,16.32
2019-03-21T07:53:15.487Z,14.45
2019-03-21T07:54:20.866Z,15.03
2019-03-21T07:55:29.370Z,17.95
2019-03-21T07:56:35.525Z,14.50
2019-03-21T07:57:42.097Z,16.27
2019-03-21T07:58:48.008Z,15.53
2019-03-21T07:59:58.078Z,15.03
2019-03-21T08:01:06.741Z,14.98
2019-03-21T08:02:12.442Z,15.60
2019-03-21T08:03:24.513Z,16.25
2019-03-21T08:04:30.946Z,15.38
2019-03-21T08:07:33.581Z,15.32
2019-03-21T08:19:29.339Z,15.25
2019-03-21T09:44:41.510Z,12.25
2019-03-21T09:48:56.141Z,13.15
2019-03-21T11:49:57.106Z,9.68
2019-03-21T12:43:44.755Z,8.58
2019-03-21T13:28:49.537Z,7.95
2019-03-21T13:35:06.647Z,7.33
2019-03-21T14:02:10.305Z,5.62
2019-03-21T14:06:33.512Z,7.50
2019-03-21T14:11:53.413Z,7.67
2019-03-21T14:12:07.532Z,6.87
2019-03-21T14:14:20.044Z,6.92
2019-03-21T14:19:00.139Z,5.97
2019-03-21T14:24:44.401Z,5.95
2019-03-21T14:40:08.009Z,4.95
2019-03-21T16:30:23.521Z,9.25
2019-03-21T16:33:15.267Z,9.60
2019-03-21T16:38:57.171Z,10.38
2019-03-21T16:45:10.470Z,10.65
2019-03-21T18:30:26.049Z,16.42
2019-03-21T18:31:55.611Z,17.60
2019-03-21T18:33:09.896Z,18.10
2019-03-21T18:34:06.754Z,17.73
2019-03-21T18:35:26.630Z,18.92
2019-03-21T18:36:53.239Z,18.65
2019-03-21T18:52:35.399Z,17.45
2019-03-21T18:53:06.195Z,18.25
2019-03-21T18:57:26.378Z,16.57
2019-03-21T18:57:29.275Z,18.10
2019-03-21T18:58:23.275Z,17.48
2019-03-21T18:59:31.260Z,19.15
2019-03-21T19:01:11.856Z,16.65
2019-03-21T19:02:36.994Z,17.92
2019-03-21T19:03:13.465Z,18.02
2019-03-21T19:04:37.101Z,19.75
2019-03-21T19:05:42.495Z,18.55
2019-03-21T19:06:55.383Z,18.20
2019-03-21T19:08:07.625Z,19.35
2019-03-21T19:09:18.459Z,19.75
2019-03-21T19:10:31.063Z,20.82
2019-03-21T19:12:41.581Z,17.17
2019-03-21T19:14:20.406Z,18.35
2019-03-21T19:15:24.595Z,18.27
2019-03-21T19:16:34.544Z,20.52
2019-03-21T19:19:26.176Z,18.82
2019-03-21T19:20:52.211Z,20.12
2019-03-21T19:21:52.780Z,18.92
2019-03-21T19:23:00.260Z,19.15
2019-03-21T19:24:06.925Z,18.52
2019-03-21T19:25:18.861Z,21.60
2019-03-21T19:26:37.214Z,20.10
2019-03-21T19:27:30.125Z,19.77
2019-03-21T19:28:38.574Z,20.80
2019-03-21T19:29:43.279Z,19.82
2019-03-21T19:30:55.005Z,18.92
2019-03-21T19:32:13.413Z,20.97
2019-03-21T19:34:35.472Z,19.75
2019-03-21T19:37:16.327Z,19.50
2019-03-21T19:38:28.204Z,20.23
2019-03-21T19:39:38.227Z,20.30
2019-03-21T19:40:45.561Z,20.00
2019-03-21T19:42:06.047Z,19.30
2019-03-21T19:43:06.916Z,20.30
2019-03-21T19:44:19.043Z,18.67
2019-03-21T19:45:27.664Z,19.85
2019-03-21T19:46:33.616Z,20.72
2019-03-21T19:47:41.630Z,20.90
2019-03-21T19:48:51.848Z,20.75
2019-03-21T19:49:58.029Z,20.70
2019-03-21T19:51:04.144Z,21.23
2019-03-21T19:52:19.338Z,20.15
2019-03-21T19:53:31.233Z,18.55
2019-03-21T19:54:40.592Z,20.27
2019-03-21T19:56:07.778Z,20.65
2019-03-21T19:57:23.666Z,21.75
2019-03-21T19:59:25.407Z,20.57
2019-03-21T19:59:51.683Z,20.17
2019-03-21T20:01:02.600Z,23.35
2019-03-21T20:02:19.970Z,21.57
2019-03-21T20:03:27.304Z,21.17
2019-03-21T20:04:59.775Z,21.85
2019-03-21T20:05:59.927Z,21.10
2019-03-21T20:06:58.210Z,22.42
2019-03-21T20:08:06.300Z,19.67
2019-03-21T20:09:16.677Z,21.02
2019-03-21T20:11:31.210Z,22.75
2019-03-21T20:12:53.563Z,22.52
2019-03-21T20:14:03.736Z,22.32
2019-03-21T20:15:19.791Z,21.77
2019-03-21T20:16:39.040Z,24.05
2019-03-21T20:17:45.899Z,21.55
2019-03-21T20:18:53.178Z,23.05
2019-03-21T20:20:05.281Z,22.50
2019-03-21T20:21:16.952Z,24.63
2019-03-21T20:22:22.896Z,21.17
2019-03-21T20:23:34.864Z,23.32
2019-03-21T20:24:43.508Z,22.85
2019-03-21T20:25:55.344Z,22.30
2019-03-21T20:27:06.455Z,22.30
2019-03-21T20:28:19.937Z,23.55
2019-03-21T20:29:29.464Z,22.62
2019-03-21T20:30:41.793Z,23.18
2019-03-21T20:31:54.534Z,22.07
2019-03-21T20:34:38.924Z,24.00
2019-03-21T20:35:36.620Z,21.82
2019-03-21T20:36:46.542Z,23.10
2019-03-21T20:37:58.766Z,24.98
2019-03-21T20:39:06.203Z,21.27
2019-03-21T20:40:20.675Z,23.50
2019-03-21T20:41:33.909Z,22.35
2019-03-21T20:42:39.903Z,22.30
2019-03-21T20:43:45.451Z,19.62
2019-03-21T20:44:49.845Z,21.87
2019-03-21T20:45:56.932Z,20.70
2019-03-21T20:47:07.526Z,23.55
2019-03-21T20:48:11.461Z,23.02
2019-03-21T20:49:18.260Z,22.13
2019-03-21T20:50:26.977Z,23.92
2019-03-21T20:51:49.707Z,22.15
2019-03-21T20:52:58.202Z,20.70
2019-03-21T20:54:02.925Z,20.65
2019-03-21T20:55:56.612Z,22.05
2019-03-21T20:56:30.406Z,22.87
2019-03-21T20:57:44.108Z,21.48
2019-03-21T20:58:56.920Z,21.93
2019-03-21T21:00:19.686Z,23.45
2019-03-21T21:01:40.545Z,24.37
2019-03-21T21:02:52.084Z,22.32
2019-03-21T21:04:07.644Z,23.80
2019-03-21T21:08:45.078Z,21.77
2019-03-21T21:09:27.598Z,22.15
2019-03-21T21:10:36.634Z,22.07
2019-03-21T21:12:05.714Z,21.95
2019-03-21T21:14:40.062Z,21.15
2019-03-21T21:16:00.861Z,22.45
2019-03-21T21:20:01.188Z,22.32
2019-03-21T21:24:17.922Z,25.27
2019-03-21T21:25:51.915Z,22.15
2019-03-21T21:27:08.726Z,22.93
2019-03-21T21:30:00.954Z,24.37
2019-03-21T21:31:13.409Z,22.50
2019-03-21T21:32:33.110Z,23.87
2019-03-21T21:33:38.670Z,23.20
2019-03-21T21:36:22.186Z,21.52
2019-03-21T21:37:55.454Z,22.45
2019-03-21T21:38:44.524Z,21.00
2019-03-21T21:41:24.990Z,22.35
2019-03-21T21:42:34.102Z,23.40
2019-03-21T21:43:43.588Z,24.98
2019-03-21T21:45:02.587Z,23.02
2019-03-21T21:46:06.068Z,23.85
2019-03-21T21:48:32.167Z,22.93
2019-03-21T21:49:42.497Z,23.52
2019-03-21T21:50:53.908Z,22.75
2019-03-21T21:52:02.538Z,22.58
2019-03-21T21:53:09.279Z,26.00
2019-03-21T21:54:20.424Z,22.93
2019-03-21T21:55:27.533Z,23.40
2019-03-21T21:56:35.850Z,24.30
2019-03-21T21:57:49.537Z,23.22
2019-03-21T21:58:58.906Z,22.25
2019-03-21T22:00:05.554Z,23.60
2019-03-21T22:02:16.202Z,25.85
2019-03-21T22:03:40.780Z,23.60
2019-03-21T22:04:13.577Z,24.18
2019-03-21T22:04:52.518Z,22.98
2019-03-21T22:06:11.453Z,24.35
2019-03-21T22:09:03.906Z,23.95
2019-03-21T22:09:59.835Z,23.62
2019-03-21T22:16:03.187Z,22.30
2019-03-21T22:17:18.032Z,22.40
2019-03-21T22:18:29.423Z,20.80
2019-03-21T22:19:35.623Z,21.50
2019-03-21T22:20:42.402Z,21.25
2019-03-21T22:21:59.128Z,22.90
2019-03-21T22:24:01.372Z,24.72
2019-03-21T22:24:32.333Z,24.57
2019-03-21T22:26:16.506Z,23.05
2019-03-21T22:27:15.646Z,24.52
2019-03-21T22:28:28.969Z,23.12
2019-03-21T22:29:40.996Z,20.75
2019-03-21T22:32:23.550Z,23.90
2019-03-21T22:33:32.046Z,23.20
2019-03-21T22:34:43.466Z,21.55
2019-03-21T22:35:48.884Z,22.55
2019-03-21T22:37:15.375Z,23.57
2019-03-21T22:38:13.124Z,22.93
2019-03-21T22:39:21.402Z,22.50
2019-03-21T22:40:28.011Z,23.32
2019-03-21T22:42:19.707Z,23.07
2019-03-21T22:44:47.882Z,22.70
2019-03-21T22:46:34.587Z,21.57
2019-03-21T22:47:33.457Z,19.95
2019-03-21T22:48:53.751Z,21.50
2019-03-21T22:50:08.367Z,22.87
2019-03-21T22:51:24.144Z,22.85
2019-03-21T22:54:07.522Z,20.40
2019-03-21T22:54:34.850Z,20.57
2019-03-21T22:55:25.195Z,23.27
2019-03-21T22:56:49.097Z,21.15
2019-03-21T22:57:51.766Z,21.85
2019-03-21T22:58:56.148Z,22.17
2019-03-21T23:00:18.308Z,22.45
2019-03-21T23:01:16.409Z,23.87
2019-03-21T23:02:22.966Z,21.75
2019-03-21T23:03:27.939Z,23.47
2019-03-21T23:04:33.608Z,23.15
2019-03-21T23:05:41.027Z,23.00
2019-03-21T23:06:48.453Z,23.92
2019-03-21T23:07:53.685Z,23.52
2019-03-21T23:09:01.982Z,22.87
2019-03-21T23:10:12.425Z,21.37
2019-03-21T23:11:17.971Z,24.27
2019-03-21T23:12:23.795Z,22.62
2019-03-21T23:13:45.120Z,21.97
2019-03-21T23:14:49.239Z,23.67
2019-03-21T23:15:55.055Z,22.45
2019-03-21T23:17:01.738Z,23.60
2019-03-21T23:18:05.280Z,22.77
2019-03-21T23:19:09.580Z,22.93
2019-03-21T23:20:15.644Z,22.58
2019-03-21T23:21:22.702Z,23.92
2019-03-21T23:22:30.316Z,23.95
2019-03-21T23:23:37.000Z,28.87
2019-03-21T23:24:40.376Z,23.85
2019-03-21T23:25:46.293Z,22.77
2019-03-21T23:27:02.907Z,22.55
2019-03-21T23:28:10.761Z,23.42
2019-03-21T23:29:19.721Z,22.50
2019-03-21T23:30:36.021Z,22.52
2019-03-21T23:31:50.701Z,22.73
2019-03-21T23:32:58.701Z,21.85
2019-03-21T23:34:03.153Z,24.10
2019-03-21T23:35:13.702Z,22.10
2019-03-21T23:36:22.308Z,24.05
2019-03-21T23:37:32.055Z,24.98
2019-03-21T23:38:44.397Z,21.95
2019-03-21T23:39:48.582Z,23.50
2019-03-21T23:41:13.373Z,24.07
2019-03-21T23:42:23.123Z,22.10
2019-03-21T23:43:31.790Z,23.18
2019-03-21T23:44:39.511Z,23.50
2019-03-21T23:45:56.734Z,24.10
2019-03-21T23:47:11.979Z,24.57
2019-03-21T23:49:20.873Z,24.92
2019-03-21T23:49:46.088Z,24.90
2019-03-21T23:51:07.118Z,22.45
2019-03-21T23:52:09.741Z,24.70
2019-03-21T23:53:20.515Z,24.45
2019-03-21T23:54:28.013Z,22.35
2019-03-21T23:55:36.521Z,25.30
2019-03-21T23:56:40.661Z,23.70
2019-03-21T23:57:46.640Z,23.77
2019-03-21T23:58:59.151Z,24.20
